createdAt,value
2022-09-28T00:00:51.056Z,12.05
2022-09-28T00:04:03.208Z,12.01
2022-09-28T00:07:05.632Z,12.00
2022-09-28T00:10:08.427Z,11.96
2022-09-28T00:13:10.869Z,11.91
2022-09-28T00:16:14.234Z,11.89
2022-09-28T00:19:16.952Z,11.86
2022-09-28T00:22:19.557Z,11.90
2022-09-28T00:25:22.099Z,11.84
2022-09-28T00:28:24.574Z,11.81
2022-09-28T00:31:32.671Z,11.75
2022-09-28T00:34:36.868Z,11.76
2022-09-28T00:37:39.405Z,11.77
2022-09-28T00:40:41.997Z,11.74
2022-09-28T00:43:44.544Z,11.75
2022-09-28T00:46:47.279Z,11.79
2022-09-28T00:49:53.962Z,11.81
2022-09-28T00:53:07.623Z,11.76
2022-09-28T00:56:12.260Z,11.77
2022-09-28T00:59:15.148Z,11.77
2022-09-28T01:02:17.811Z,11.77
2022-09-28T01:05:20.876Z,11.92
2022-09-28T01:08:25.516Z,11.83
2022-09-28T01:11:29.868Z,11.91
2022-09-28T01:14:32.608Z,11.88
2022-09-28T01:17:35.148Z,11.90
2022-09-28T01:20:39.248Z,12.04
2022-09-28T01:24:14.275Z,11.97
2022-09-28T01:27:36.140Z,12.15
2022-09-28T01:30:58.057Z,12.06
2022-09-28T01:34:04.031Z,12.04
2022-09-28T01:37:09.689Z,12.03
2022-09-28T01:40:15.011Z,12.04
2022-09-28T01:43:19.876Z,11.91
2022-09-28T01:46:25.271Z,11.89
2022-09-28T01:49:31.606Z,11.86
2022-09-28T01:52:40.580Z,11.92
2022-09-28T01:55:47.705Z,11.89
2022-09-28T01:58:57.681Z,11.74
2022-09-28T02:02:09.967Z,11.72
2022-09-28T02:05:39.394Z,11.76
2022-09-28T02:08:48.651Z,11.68
2022-09-28T02:11:58.155Z,11.73
2022-09-28T02:15:08.312Z,11.71
2022-09-28T02:18:11.552Z,11.68
2022-09-28T02:21:22.250Z,11.77
2022-09-28T02:24:33.408Z,11.80
2022-09-28T02:27:48.601Z,11.85
2022-09-28T02:30:51.344Z,11.82
2022-09-28T02:33:54.974Z,11.79
2022-09-28T02:36:57.836Z,11.79
2022-09-28T02:40:00.639Z,11.77
2022-09-28T02:43:18.806Z,11.75
2022-09-28T02:46:30.448Z,11.73
2022-09-28T02:49:49.963Z,11.71
2022-09-28T02:52:52.139Z,11.68
2022-09-28T02:55:57.859Z,11.66
2022-09-28T02:59:00.447Z,11.74
2022-09-28T03:02:12.070Z,11.67
2022-09-28T03:05:18.880Z,11.65
2022-09-28T03:08:24.781Z,11.63
2022-09-28T03:11:30.547Z,11.64
2022-09-28T03:14:33.408Z,11.68
2022-09-28T03:17:35.837Z,11.64
2022-09-28T03:20:38.600Z,11.64
2022-09-28T03:23:41.656Z,11.61
2022-09-28T03:26:44.480Z,11.59
2022-09-28T03:29:47.126Z,11.59
2022-09-28T03:32:59.565Z,11.62
2022-09-28T03:36:02.640Z,11.59
2022-09-28T03:39:05.745Z,11.57
2022-09-28T03:42:08.104Z,11.56
2022-09-28T03:45:11.879Z,11.55
2022-09-28T03:48:14.699Z,11.53
2022-09-28T03:51:18.027Z,11.50
2022-09-28T03:54:20.307Z,11.49
2022-09-28T03:57:23.053Z,11.49
2022-09-28T04:00:25.479Z,11.50
2022-09-28T04:03:28.272Z,11.48
2022-09-28T04:06:30.564Z,11.46
2022-09-28T04:09:33.755Z,11.47
2022-09-28T04:12:36.183Z,11.49
2022-09-28T04:15:40.414Z,11.45
2022-09-28T04:18:42.706Z,11.42
2022-09-28T04:21:45.721Z,11.38
2022-09-28T04:24:48.377Z,11.41
2022-09-28T04:28:09.567Z,11.48
2022-09-28T04:31:13.863Z,11.43
2022-09-28T04:34:18.725Z,11.51
2022-09-28T04:37:21.117Z,11.47
2022-09-28T04:40:23.981Z,11.46
2022-09-28T04:43:26.836Z,11.41
2022-09-28T04:46:30.154Z,11.39
2022-09-28T04:49:35.328Z,11.40
2022-09-28T04:52:38.276Z,11.31
2022-09-28T04:55:40.543Z,11.27
2022-09-28T04:58:43.388Z,11.23
2022-09-28T05:01:47.610Z,11.19
2022-09-28T05:04:53.620Z,11.23
2022-09-28T05:07:59.810Z,11.24
2022-09-28T05:11:04.418Z,11.24
2022-09-28T05:14:06.920Z,11.23
2022-09-28T05:17:10.093Z,11.32
2022-09-28T05:20:13.182Z,11.28
2022-09-28T05:23:17.437Z,11.20
2022-09-28T05:26:19.823Z,11.23
2022-09-28T05:29:22.915Z,11.23
2022-09-28T05:32:25.841Z,11.16
2022-09-28T05:35:31.188Z,11.18
2022-09-28T05:38:33.464Z,11.19
2022-09-28T05:41:37.051Z,11.30
2022-09-28T05:44:40.350Z,11.34
2022-09-28T05:47:44.006Z,11.34
2022-09-28T05:50:52.386Z,11.46
2022-09-28T05:54:01.781Z,11.55
2022-09-28T05:57:07.382Z,11.66
2022-09-28T06:00:10.562Z,11.75
2022-09-28T06:03:14.749Z,11.86
2022-09-28T06:06:17.509Z,11.91
2022-09-28T06:09:22.707Z,11.99
2022-09-28T06:12:29.108Z,12.11
2022-09-28T06:15:33.649Z,12.19
2022-09-28T06:18:36.535Z,12.36
2022-09-28T06:21:38.996Z,12.53
2022-09-28T06:24:42.188Z,12.72
2022-09-28T06:27:53.454Z,12.74
2022-09-28T06:30:56.227Z,12.83
2022-09-28T06:34:01.888Z,13.03
2022-09-28T06:37:04.723Z,13.19
2022-09-28T06:40:07.703Z,13.40
2022-09-28T06:43:12.627Z,13.54
2022-09-28T06:46:21.625Z,13.78
2022-09-28T06:49:27.777Z,13.98
2022-09-28T06:52:31.735Z,14.12
2022-09-28T06:55:35.349Z,14.25
2022-09-28T06:58:37.831Z,14.26
2022-09-28T07:01:41.081Z,14.64
2022-09-28T07:04:43.620Z,14.73
2022-09-28T07:07:46.586Z,14.71
2022-09-28T07:10:56.143Z,14.69
2022-09-28T07:13:59.096Z,15.00
2022-09-28T07:17:13.201Z,15.28
2022-09-28T07:20:19.327Z,15.31
2022-09-28T07:23:22.167Z,15.61
2022-09-28T07:26:34.421Z,15.63
2022-09-28T07:29:36.946Z,15.88
2022-09-28T07:32:41.783Z,16.02
2022-09-28T07:35:52.545Z,16.44
2022-09-28T07:38:55.879Z,17.17
2022-09-28T07:42:02.484Z,18.06
2022-09-28T07:45:07.055Z,21.32
2022-09-28T07:48:09.417Z,28.86
2022-09-28T07:51:12.425Z,34.97
2022-09-28T07:54:14.708Z,38.90
2022-09-28T07:57:19.506Z,40.94
2022-09-28T08:00:22.787Z,43.11
2022-09-28T08:03:25.487Z,44.90
2022-09-28T08:06:30.097Z,44.99
2022-09-28T08:09:32.954Z,45.40
2022-09-28T08:12:40.741Z,45.10
2022-09-28T08:15:45.331Z,34.09
2022-09-28T08:18:49.335Z,30.11
2022-09-28T08:21:52.177Z,24.89
2022-09-28T08:24:54.576Z,23.82
2022-09-28T08:27:57.558Z,23.65
2022-09-28T08:31:03.940Z,24.36
2022-09-28T08:34:06.815Z,23.61
2022-09-28T08:37:11.843Z,22.65
2022-09-28T08:40:24.641Z,22.04
2022-09-28T08:43:46.406Z,22.38
2022-09-28T08:46:53.690Z,21.73
2022-09-28T08:49:57.144Z,21.88
2022-09-28T08:53:05.962Z,20.48
2022-09-28T08:56:15.871Z,20.52
2022-09-28T08:59:21.394Z,20.79
2022-09-28T09:02:28.132Z,21.66
2022-09-28T09:05:49.633Z,22.29
2022-09-28T09:08:57.323Z,23.34
2022-09-28T09:12:07.777Z,23.02
2022-09-28T09:15:11.456Z,21.88
2022-09-28T09:18:33.196Z,21.71
2022-09-28T09:21:43.484Z,21.54
2022-09-28T09:24:50.956Z,21.41
2022-09-28T09:27:54.920Z,21.21
2022-09-28T09:31:08.394Z,20.82
2022-09-28T09:34:12.015Z,20.64
2022-09-28T09:37:24.981Z,20.79
2022-09-28T09:40:27.688Z,21.53
2022-09-28T09:43:42.266Z,22.55
2022-09-28T09:46:54.241Z,23.17
2022-09-28T09:50:05.498Z,23.72
2022-09-28T09:53:13.662Z,24.84
2022-09-28T09:56:23.143Z,25.49
2022-09-28T09:59:33.757Z,26.20
2022-09-28T10:02:38.963Z,24.37
2022-09-28T10:05:43.143Z,23.35
2022-09-28T10:08:50.353Z,21.33
2022-09-28T10:11:54.020Z,20.90
2022-09-28T10:14:56.772Z,20.89
2022-09-28T10:18:06.812Z,20.64
2022-09-28T10:21:15.101Z,19.67
2022-09-28T10:24:22.997Z,19.65
2022-09-28T10:27:30.783Z,19.68
2022-09-28T10:30:44.557Z,19.97
2022-09-28T10:33:47.305Z,20.69
2022-09-28T10:37:06.883Z,21.10
2022-09-28T10:40:28.265Z,21.68
2022-09-28T10:43:34.622Z,21.81
2022-09-28T10:46:38.857Z,21.86
2022-09-28T10:49:47.276Z,21.28
2022-09-28T10:52:50.206Z,20.78
2022-09-28T10:55:59.342Z,20.68
2022-09-28T10:59:01.978Z,20.68
2022-09-28T11:02:26.227Z,21.01
2022-09-28T11:05:30.138Z,20.68
2022-09-28T11:08:36.288Z,20.46
2022-09-28T11:11:42.931Z,20.48
2022-09-28T11:14:46.566Z,20.76
2022-09-28T11:17:49.391Z,20.78
2022-09-28T11:20:52.882Z,21.32
2022-09-28T11:24:07.320Z,22.53
2022-09-28T11:27:18.918Z,22.46
2022-09-28T11:30:28.046Z,21.00
2022-09-28T11:33:33.619Z,20.59
2022-09-28T11:37:02.275Z,20.67
2022-09-28T11:40:12.737Z,20.96
2022-09-28T11:43:24.202Z,21.41
2022-09-28T11:46:41.641Z,22.02
2022-09-28T11:49:52.417Z,21.79
2022-09-28T11:53:04.603Z,21.82
2022-09-28T11:56:19.811Z,21.87
2022-09-28T11:59:39.790Z,22.33
2022-09-28T12:02:46.436Z,22.06
2022-09-28T12:05:52.558Z,21.82
2022-09-28T12:08:58.400Z,22.11
2022-09-28T12:12:03.945Z,22.42
2022-09-28T12:15:13.731Z,22.61
2022-09-28T12:18:28.547Z,22.27
2022-09-28T12:21:34.006Z,22.25
2022-09-28T12:24:38.826Z,22.49
2022-09-28T12:27:53.319Z,22.62
2022-09-28T12:30:58.999Z,22.36
2022-09-28T12:34:02.267Z,22.32
2022-09-28T12:37:09.190Z,22.02
2022-09-28T12:40:30.667Z,21.45
2022-09-28T12:43:33.619Z,21.18
2022-09-28T12:46:36.722Z,20.91
2022-09-28T12:53:07.958Z,20.29
2022-09-28T12:56:16.763Z,20.01
2022-09-28T12:59:28.111Z,20.37
2022-09-28T13:02:39.988Z,20.69
2022-09-28T13:05:45.676Z,20.96
2022-09-28T13:08:56.566Z,20.94
2022-09-28T13:12:14.037Z,20.80
2022-09-28T13:15:29.438Z,21.00
2022-09-28T13:18:35.062Z,21.11
2022-09-28T13:21:44.054Z,20.90
2022-09-28T13:24:47.440Z,21.32
2022-09-28T13:28:01.569Z,21.33
2022-09-28T13:31:05.722Z,21.01
2022-09-28T13:34:18.369Z,20.07
2022-09-28T13:37:25.706Z,19.49
2022-09-28T13:40:48.414Z,19.63
2022-09-28T13:44:03.200Z,19.80
2022-09-28T13:47:26.461Z,19.95
2022-09-28T13:50:36.748Z,19.90
2022-09-28T13:53:51.639Z,19.86
2022-09-28T13:57:09.510Z,19.71
2022-09-28T14:00:12.087Z,19.85
2022-09-28T14:03:30.779Z,19.75
2022-09-28T14:06:33.373Z,19.67
2022-09-28T14:09:46.789Z,19.56
2022-09-28T14:12:51.358Z,19.86
2022-09-28T14:16:14.795Z,19.93
2022-09-28T14:19:24.394Z,19.68
2022-09-28T14:22:39.537Z,19.41
2022-09-28T14:25:46.672Z,18.98
2022-09-28T14:29:02.111Z,18.46
2022-09-28T14:32:10.806Z,18.25
2022-09-28T14:35:20.852Z,18.28
2022-09-28T14:38:44.805Z,18.12
2022-09-28T14:41:47.278Z,18.18
2022-09-28T14:45:06.377Z,18.25
2022-09-28T14:48:15.239Z,18.22
2022-09-28T14:51:30.237Z,18.03
2022-09-28T14:54:45.391Z,17.96
2022-09-28T14:57:52.128Z,17.96
2022-09-28T15:00:58.522Z,17.86
2022-09-28T15:04:04.969Z,17.90
2022-09-28T15:07:19.304Z,17.84
2022-09-28T15:10:27.731Z,17.74
2022-09-28T15:13:33.744Z,17.70
2022-09-28T15:16:36.739Z,17.73
2022-09-28T15:20:02.637Z,17.68
2022-09-28T15:23:05.404Z,17.57
2022-09-28T15:26:20.001Z,17.64
2022-09-28T15:29:28.217Z,17.72
2022-09-28T15:32:32.165Z,17.73
2022-09-28T15:35:35.702Z,17.67
2022-09-28T15:38:38.207Z,17.67
2022-09-28T15:41:42.898Z,17.56
2022-09-28T15:45:08.845Z,17.47
2022-09-28T15:48:29.075Z,17.50
2022-09-28T15:51:44.686Z,17.45
2022-09-28T15:54:47.363Z,17.38
2022-09-28T15:57:50.261Z,17.30
2022-09-28T16:01:12.940Z,17.30
2022-09-28T16:04:35.266Z,17.28
2022-09-28T16:07:41.646Z,17.30
2022-09-28T16:10:53.413Z,17.28
2022-09-28T16:14:02.663Z,17.24
2022-09-28T16:17:05.637Z,17.24
2022-09-28T16:20:22.309Z,17.11
2022-09-28T16:23:33.242Z,16.97
2022-09-28T16:26:39.028Z,17.02
2022-09-28T16:29:45.296Z,17.01
2022-09-28T16:32:51.803Z,16.95
2022-09-28T16:35:54.595Z,17.01
2022-09-28T16:38:57.314Z,16.95
2022-09-28T16:42:03.156Z,16.96
2022-09-28T16:45:06.776Z,16.96
2022-09-28T16:48:13.639Z,16.92
2022-09-28T16:51:16.828Z,16.92
2022-09-28T16:54:42.465Z,16.88
2022-09-28T16:57:46.300Z,16.91
2022-09-28T17:00:49.176Z,16.80
2022-09-28T17:03:51.677Z,16.77
2022-09-28T17:06:55.565Z,16.78
2022-09-28T17:09:58.016Z,16.77
2022-09-28T17:13:01.036Z,16.78
2022-09-28T17:16:06.329Z,16.67
2022-09-28T17:19:21.210Z,16.60
2022-09-28T17:22:23.860Z,16.58
2022-09-28T17:25:27.240Z,16.59
2022-09-28T17:28:32.102Z,16.53
2022-09-28T17:31:35.285Z,16.52
2022-09-28T17:34:37.546Z,16.47
2022-09-28T17:37:43.374Z,16.54
2022-09-28T17:40:48.015Z,16.41
2022-09-28T17:43:51.217Z,16.35
2022-09-28T17:46:53.902Z,16.26
2022-09-28T17:49:58.736Z,16.32
2022-09-28T17:53:05.963Z,16.11
2022-09-28T17:56:09.897Z,16.03
2022-09-28T17:59:17.484Z,16.00
2022-09-28T18:02:20.203Z,15.94
2022-09-28T18:05:24.936Z,15.84
2022-09-28T18:08:28.104Z,15.84
2022-09-28T18:11:31.642Z,15.84
2022-09-28T18:14:35.741Z,15.91
2022-09-28T18:17:39.188Z,15.81
2022-09-28T18:20:42.126Z,15.79
2022-09-28T18:23:44.691Z,15.68
2022-09-28T18:26:47.925Z,15.53
2022-09-28T18:29:50.745Z,15.48
2022-09-28T18:32:53.772Z,15.46
2022-09-28T18:35:56.375Z,15.42
2022-09-28T18:39:00.963Z,15.39
2022-09-28T18:42:04.209Z,15.44
2022-09-28T18:45:08.319Z,15.26
2022-09-28T18:48:10.967Z,15.23
2022-09-28T18:51:13.451Z,15.29
2022-09-28T18:54:17.074Z,15.19
2022-09-28T18:57:19.593Z,15.18
2022-09-28T19:00:22.187Z,15.08
2022-09-28T19:03:24.760Z,15.03
2022-09-28T19:06:28.068Z,15.12
2022-09-28T19:09:32.276Z,15.06
2022-09-28T19:12:34.893Z,15.02
2022-09-28T19:15:37.425Z,15.01
2022-09-28T19:18:40.015Z,14.94
2022-09-28T19:21:43.425Z,14.86
2022-09-28T19:24:47.468Z,14.83
2022-09-28T19:27:52.471Z,14.88
2022-09-28T19:30:56.739Z,14.84
2022-09-28T19:33:59.195Z,14.87
2022-09-28T19:37:04.891Z,14.82
2022-09-28T19:40:08.073Z,14.78
2022-09-28T19:43:10.643Z,14.81
2022-09-28T19:46:13.385Z,14.75
2022-09-28T19:49:21.134Z,14.64
2022-09-28T19:52:23.800Z,14.56
2022-09-28T19:55:31.908Z,14.51
2022-09-28T19:58:36.390Z,14.54
2022-09-28T20:01:39.237Z,14.57
2022-09-28T20:04:42.089Z,14.56
2022-09-28T20:07:44.408Z,14.61
2022-09-28T20:10:52.396Z,14.55
2022-09-28T20:13:55.413Z,14.61
2022-09-28T20:16:58.314Z,14.61
2022-09-28T20:20:03.646Z,14.61
2022-09-28T20:23:06.464Z,14.62
2022-09-28T20:26:11.837Z,14.62
2022-09-28T20:29:14.594Z,14.65
2022-09-28T20:32:19.188Z,14.64
2022-09-28T20:35:32.267Z,14.61
2022-09-28T20:38:40.644Z,14.60
2022-09-28T20:41:43.521Z,14.60
2022-09-28T20:44:46.003Z,14.62
2022-09-28T20:47:48.843Z,14.64
2022-09-28T20:51:01.420Z,14.66
2022-09-28T20:54:04.226Z,14.63
2022-09-28T20:57:17.665Z,14.57
2022-09-28T21:00:22.923Z,14.56
2022-09-28T21:03:25.454Z,14.52
2022-09-28T21:06:29.598Z,14.52
2022-09-28T21:09:32.502Z,14.52
2022-09-28T21:12:36.977Z,14.43
2022-09-28T21:15:39.449Z,14.44
2022-09-28T21:18:42.287Z,14.49
2022-09-28T21:21:44.908Z,14.53
2022-09-28T21:24:47.624Z,14.40
2022-09-28T21:27:50.558Z,14.38
2022-09-28T21:30:53.439Z,14.43
2022-09-28T21:33:56.114Z,14.33
2022-09-28T21:36:59.006Z,14.33
2022-09-28T21:40:02.591Z,14.35
2022-09-28T21:43:05.284Z,14.26
2022-09-28T21:46:07.631Z,14.28
2022-09-28T21:49:11.018Z,14.46
2022-09-28T21:52:13.225Z,14.43
2022-09-28T21:55:15.991Z,14.43
2022-09-28T21:58:23.151Z,14.30
2022-09-28T22:01:26.175Z,14.25
2022-09-28T22:04:28.801Z,14.20
2022-09-28T22:07:31.233Z,14.04
2022-09-28T22:10:33.711Z,14.07
2022-09-28T22:13:40.284Z,13.85
2022-09-28T22:16:43.377Z,14.00
2022-09-28T22:19:45.859Z,13.93
2022-09-28T22:22:50.941Z,13.99
2022-09-28T22:25:59.576Z,13.98
2022-09-28T22:29:06.633Z,13.96
2022-09-28T22:32:09.159Z,14.03
2022-09-28T22:35:14.019Z,14.05
2022-09-28T22:38:17.489Z,14.09
2022-09-28T22:41:23.055Z,14.18
2022-09-28T22:44:25.727Z,14.22
2022-09-28T22:47:28.227Z,14.23
2022-09-28T22:50:31.585Z,14.26
2022-09-28T22:53:35.396Z,14.25
2022-09-28T22:56:37.798Z,14.25
2022-09-28T22:59:40.290Z,14.31
2022-09-28T23:02:43.094Z,14.30
2022-09-28T23:05:52.376Z,14.27
2022-09-28T23:08:55.044Z,14.28
2022-09-28T23:11:57.645Z,14.38
2022-09-28T23:15:00.114Z,14.38
2022-09-28T23:18:02.641Z,14.43
2022-09-28T23:21:06.525Z,14.45
2022-09-28T23:24:11.015Z,14.32
2022-09-28T23:27:13.634Z,14.34
2022-09-28T23:30:17.090Z,14.31
2022-09-28T23:33:21.012Z,14.32
2022-09-28T23:36:23.676Z,14.35
2022-09-28T23:39:26.173Z,14.37
2022-09-28T23:42:29.058Z,14.36
2022-09-28T23:45:31.919Z,14.41
2022-09-28T23:48:34.462Z,14.47
2022-09-28T23:51:37.062Z,14.37
2022-09-28T23:54:39.763Z,14.44
2022-09-28T23:57:45.188Z,14.47
